Share

Chauncey, GA

Heart Of Georgia Regional (KEZM) Elev 305 ft | 32.21 °N, 83.13 °W | Change Station
Active Advisory: Flood Warning

Current weather conditions updated 20 minutes ago

Overcast
Overcast
60 °F
Feels Like 60 °F
N
10
Wind Variable Wind from NE
Sunrise 6:57 AM
Sunset 8:05 PM
Moon Waning Gibbous

Today is forecast to be Much Warmer than yesterday.

Pressure 30.23 in
Visibility 10.0 miles
Clouds Mostly Cloudy 1800 ft
Overcast 2300 ft
Dew Point 55 °F
Humidity 86%
Rainfall 0.00 in
Snow Depth Not available.
UV 4 out of 16
Pollen 9.00 out of 12
Air Quality Not available.
Flu Activity Sporadic
METAR KEZM 201635Z AUTO 04009KT 10SM BKN018 OVC023 15/13 A3023 RMK AO2 T01540130

More Conditions Fewer Conditions

Pressure 30.23 in
Visibility 10.0 miles
Clouds Mostly Cloudy 1800 ft
Overcast 2300 ft
Dew Point 55 °F
Humidity 86%
Rainfall 0.00 in
Snow Depth Not available.
UV 4 out of 16
Pollen 9.00 out of 12
Air Quality Not available.
Flu Activity Sporadic
METAR KEZM 201635Z AUTO 04009KT 10SM BKN018 OVC023 15/13 A3023 RMK AO2 T01540130

More Conditions Fewer Conditions

10-Day Weather Forecast

Almanac

Astronomy

Apr. 20, 2014 Rise Set
Actual Time 6:57 AM EDT 8:05 PM EDT
Civil Twilight 6:32 AM EDT 8:30 PM EDT
Nautical Twilight 6:02 AM EDT 9:01 PM EDT
Astronomical Twilight 5:31 AM EDT 9:32 PM EDT
Moon 12:37 AM EDT 11:23 AM EDT
Length of Visible Light 13h 58m
Length of Day
13h 07m
Tomorrow will be 1m 49s longer.
Waning Gibbous, 68% of the Moon is Illuminated
Today
Waning Gibbous
Apr 22
Last Quarter
Apr 29
New
May 6
First Quarter
May 14
Full

Today's Extremes

State Highs State Lows

Community

  • Columbine
    Columbine
  • Easter Sunrise
    Easter Sunrise
  • Easter Eve - The Promise - Lake Palestine, TX
    Easter Eve - The Promise - Lake Palestine, TX
  • Happy Easter
    Happy Easter
  • EARLY FOGGY MORNING
    EARLY FOGGY MORNING

WunderPhotos

Upload Photos

1,703,276 photos uploaded!

WunderBlogs® & News

Nearby

Snow Depth

Station Depth Elevation
No new snow has been reported.

Coastal Water Temperatures

Place Temperature
No Stations Reporting

Earthquake Activity

City Distance Mag. Time & Date
No recent earthquake activity has been reported nearby.
Minimum magnitude displayed is 2.5.

Nearby Weather Stations

Station Location Temp. Dew Point Humidity Wind Precip. Elev Updated Type
Eastman, Eastman, GA 57.4 °F 54 °F 87% NW  at  5.8 mph - / hr 381 ft 12:41 PM EDT Normal
SW of Chauncey, Chauncey, GA 59.7 °F 33 °F 37% ENE  at  9.2 mph 0.00 in / hr 367 ft 12:55 PM EDT Rapid Fire
RAWS MCRAE GA, McRae, GA 54 °F 52 °F 93% North  at  6 mph 0.00 in / hr 201 ft 12:03 PM EDT MADIS
Abbeville, GA, Abbeville, GA 57.0 °F 53 °F 87% NE  at  6.3 mph - / hr 253 ft 12:44 PM EDT Normal

Show More Stations Show Fewer Stations

What do you think?

We're not finished. Please let us know what you like, what you don't like, and what you are still missing.